Fort Sumner, NM

3:07 AM MST on December 25, 2014 (GMT -0700)
Lake Sumner Village | Change Station
CLOSE
Current Station
Personal Weather Station
Location: Fort Sumner, NM
Elevation: 4362 ft
Nearby Weather Stations

Elev 4362 ft 34.62 °N, 104.40 °W | Updated 4 seconds ago

Partly Cloudy
Partly Cloudy
33.1 °F
Feels Like 33 °F
N
3.0
Wind Variable Wind from WSW
Gusts 4.0 mph

Today
High -- | Low -- °F
--% Chance of Precip.
Yesterday
High -- | Low -- °F
Precip. -- in
7:01 AM 4:53 PM
Waxing Crescent, 15% visible
Pressure 29.73 in
Visibility 10.0 miles
Clouds Few 20000 ft
Scattered Clouds 24000 ft
Windchill 33 °F
Dew Point 14 °F
Humidity 46%
Rainfall 0.00 in
Snow Depth Not available.
UV 0 out of 12
Pollen 5.40 out of 12
Air Quality Not available.
Flu Activity Not available.
METAR K4MR 250956Z AUTO 22008KT 10SM FEW200 SCT240 01/M09 A2975 RMK AO2 SLP066 T00071094

More Conditions Fewer Conditions

Pressure 29.73 in
Visibility 10.0 miles
Clouds Few 20000 ft
Scattered Clouds 24000 ft
Windchill 33 °F
Dew Point 14 °F
Humidity 46%
Rainfall 0.00 in
Snow Depth Not available.
UV 0 out of 12
Pollen 5.40 out of 12
Air Quality Not available.
Flu Activity Not available.
METAR K4MR 250956Z AUTO 22008KT 10SM FEW200 SCT240 01/M09 A2975 RMK AO2 SLP066 T00071094

More Conditions Fewer Conditions

10-Day Weather Forecast

Almanac

Astronomy

Dec. 25, 2014 Rise Set
Actual Time
Civil Twilight
Nautical Twilight
Astronomical Twilight
Moon
Length of Visible Light
Length of Day
Tomorrow will be .
, % of the Moon is Illuminated

Today's Extremes

State Highs State Lows

Community

WunderPhotos

Upload Photos

1,780,253 photos uploaded!

WunderBlogs® & News

Nearby

Air Quality

  Air Quality AQ Index Pollutant
Not available.

Snow Depth

Station Depth Elevation

Earthquake Activity

City Distance Mag. Time & Date
Minimum magnitude displayed is 2.5.

Coastal Water Temperatures

Place Temperature

Nearby Weather Stations